00UT weather

CLOSED Clear Creek Ranch Airport
Kanab, Utah, United States

Public forecast

Using degrees Fahrenheit for public forecast. Weather courtesy of forecast.io.

Closest aviation weather report (METAR) to Clear Creek Ranch Airport

Closest report is Colorado City Municipal Airport, 19.6 nm (36.3 km) SSW. Retrieved 2019/11/18 12:35 UTC (6 minutes ago):

KAZC 181235Z AUTO 00000KT 10SM CLR M01/M11 A3021 RMK AO2

Closest aviation forecast (TAF) to Clear Creek Ranch Airport

Closest forecast is Cedar City Regional Airport, 30.2 nm (56.0 km) NNW. Retrieved 2019/11/18 12:22 UTC (19 minutes ago):

TAF KCDC 181120Z 1812/1912 VRB04KT P6SM SCT200